createdAt,value
2019-04-10T00:01:42.579Z,41.30
2019-04-10T00:04:13.031Z,44.93
2019-04-10T00:06:43.092Z,47.88
2019-04-10T00:09:15.350Z,42.65
2019-04-10T00:11:47.222Z,40.35
2019-04-10T00:14:18.371Z,39.78
2019-04-10T00:16:48.942Z,39.98
2019-04-10T00:19:18.763Z,41.80
2019-04-10T00:21:49.429Z,42.78
2019-04-10T00:24:19.868Z,42.55
2019-04-10T00:26:50.715Z,44.33
2019-04-10T00:29:20.379Z,39.88
2019-04-10T00:31:50.791Z,43.00
2019-04-10T00:34:21.264Z,43.10
2019-04-10T00:36:51.663Z,42.65
2019-04-10T00:39:24.793Z,42.10
2019-04-10T00:41:54.810Z,47.67
2019-04-10T00:44:25.758Z,43.02
2019-04-10T00:46:57.317Z,43.68
2019-04-10T00:49:27.129Z,43.73
2019-04-10T00:51:59.559Z,43.25
2019-04-10T00:54:29.451Z,41.23
2019-04-10T00:56:59.283Z,41.80
2019-04-10T00:59:29.049Z,42.58
2019-04-10T01:01:58.866Z,43.00
2019-04-10T01:04:28.723Z,41.13
2019-04-10T01:07:00.114Z,43.68
2019-04-10T01:09:31.113Z,42.67
2019-04-10T01:12:01.532Z,42.90
2019-04-10T01:14:31.818Z,41.95
2019-04-10T01:17:02.224Z,44.90
2019-04-10T01:19:32.658Z,43.83
2019-04-10T01:22:03.108Z,43.87
2019-04-10T01:24:33.478Z,45.60
2019-04-10T01:27:03.772Z,39.48
2019-04-10T01:29:33.662Z,47.00
2019-04-10T01:32:03.987Z,41.92
2019-04-10T01:34:33.777Z,42.53
2019-04-10T01:37:04.699Z,41.08
2019-04-10T01:39:35.277Z,45.70
2019-04-10T01:42:06.061Z,44.18
2019-04-10T01:44:36.457Z,41.50
2019-04-10T01:47:06.924Z,43.33
2019-04-10T01:49:37.646Z,42.98
2019-04-10T01:52:08.918Z,44.15
2019-04-10T01:54:39.614Z,44.33
2019-04-10T01:57:10.300Z,47.10
2019-04-10T01:59:42.419Z,46.00
2019-04-10T02:02:17.569Z,45.70
2019-04-10T02:04:48.017Z,44.83
2019-04-10T02:07:20.028Z,46.20
2019-04-10T02:09:50.654Z,49.10
2019-04-10T02:12:22.882Z,45.00
2019-04-10T02:14:52.660Z,43.35
2019-04-10T02:17:22.607Z,41.53
2019-04-10T02:19:52.661Z,44.88
2019-04-10T02:22:22.601Z,47.50
2019-04-10T02:24:53.319Z,46.08
2019-04-10T02:27:24.534Z,42.17
2019-04-10T02:29:55.768Z,41.33
2019-04-10T02:32:26.585Z,48.05
2019-04-10T02:34:57.641Z,44.25
2019-04-10T02:37:28.605Z,43.55
2019-04-10T02:40:02.349Z,42.38
2019-04-10T02:42:32.394Z,44.35
2019-04-10T02:45:03.142Z,46.70
2019-04-10T02:47:32.903Z,49.27
2019-04-10T02:50:03.531Z,48.87
2019-04-10T02:52:35.029Z,43.42
2019-04-10T02:55:07.793Z,47.15
2019-04-10T02:57:39.073Z,45.85
2019-04-10T03:00:10.670Z,48.58
2019-04-10T03:02:41.682Z,48.30
2019-04-10T03:05:13.584Z,48.95
2019-04-10T03:07:44.395Z,40.88
2019-04-10T03:10:25.331Z,42.85
2019-04-10T03:12:48.448Z,48.77
2019-04-10T03:15:19.589Z,50.80
2019-04-10T03:17:50.515Z,47.13
2019-04-10T03:20:20.490Z,43.33
2019-04-10T03:22:51.444Z,44.75
2019-04-10T03:25:21.863Z,45.25
2019-04-10T03:27:52.547Z,42.58
2019-04-10T03:30:23.441Z,40.03
2019-04-10T03:33:03.367Z,37.80
2019-04-10T03:35:32.473Z,39.90
2019-04-10T03:38:03.019Z,38.28
2019-04-10T03:40:32.776Z,39.20
2019-04-10T03:43:03.512Z,40.10
2019-04-10T03:45:33.395Z,41.65
2019-04-10T03:48:04.796Z,39.23
2019-04-10T03:50:34.589Z,41.80
2019-04-10T03:53:05.452Z,39.30
2019-04-10T03:55:36.843Z,41.10
2019-04-10T03:58:07.146Z,39.03
2019-04-10T04:00:38.307Z,42.62
2019-04-10T04:03:08.838Z,42.60
2019-04-10T04:05:39.086Z,44.55
2019-04-10T04:08:09.391Z,41.08
2019-04-10T04:10:40.453Z,44.85
2019-04-10T04:13:11.224Z,43.80
2019-04-10T04:15:42.624Z,41.80
2019-04-10T04:18:12.988Z,48.00
2019-04-10T04:20:43.442Z,49.45
2019-04-10T04:23:13.755Z,41.65
2019-04-10T04:25:44.208Z,42.03
2019-04-10T04:28:14.692Z,48.20
2019-04-10T04:30:45.688Z,40.25
2019-04-10T04:33:15.528Z,42.90
2019-04-10T04:35:45.921Z,45.58
2019-04-10T04:38:16.341Z,45.70
2019-04-10T04:40:46.764Z,47.98
2019-04-10T04:43:16.771Z,42.83
2019-04-10T04:45:46.532Z,43.35
2019-04-10T04:48:17.434Z,48.05
2019-04-10T04:50:47.266Z,45.25
2019-04-10T04:53:17.069Z,43.92
2019-04-10T04:55:47.081Z,44.20
2019-04-10T04:58:18.085Z,46.55
2019-04-10T05:00:48.648Z,46.63
2019-04-10T05:03:18.642Z,42.17
2019-04-10T05:05:49.965Z,46.48
2019-04-10T05:08:20.034Z,46.25
2019-04-10T05:10:50.052Z,46.73
2019-04-10T05:13:24.429Z,47.50
2019-04-10T05:15:55.482Z,50.55
2019-04-10T05:18:25.840Z,49.35
2019-04-10T05:20:56.748Z,44.45
2019-04-10T05:23:27.197Z,49.25
2019-04-10T05:26:02.379Z,48.25
2019-04-10T05:28:32.942Z,46.20
2019-04-10T05:31:03.690Z,45.43
2019-04-10T05:33:33.358Z,53.30
2019-04-10T05:36:04.795Z,53.10
2019-04-10T05:38:35.484Z,55.98
2019-04-10T05:41:06.933Z,54.45
2019-04-10T05:43:38.405Z,51.70
2019-04-10T05:46:08.297Z,51.58
2019-04-10T05:48:38.562Z,50.20
2019-04-10T05:51:09.375Z,49.85
2019-04-10T05:53:40.766Z,48.65
2019-04-10T05:56:14.505Z,49.88
2019-04-10T05:58:44.851Z,53.10
2019-04-10T06:01:15.698Z,47.03
2019-04-10T06:03:47.334Z,48.63
2019-04-10T06:06:17.736Z,52.95
2019-04-10T06:08:47.505Z,49.55
2019-04-10T06:11:17.348Z,48.58
2019-04-10T06:13:48.572Z,53.52
2019-04-10T06:16:19.526Z,50.78
2019-04-10T06:18:49.411Z,50.83
2019-04-10T06:21:19.219Z,56.25
2019-04-10T06:23:49.847Z,55.20
2019-04-10T06:26:19.967Z,55.10
2019-04-10T06:28:50.526Z,48.23
2019-04-10T06:31:20.961Z,52.23
2019-04-10T06:33:50.987Z,51.28
2019-04-10T06:36:21.558Z,51.33
2019-04-10T06:38:53.009Z,59.42
2019-04-10T06:41:24.283Z,52.33
2019-04-10T06:43:55.290Z,49.55
2019-04-10T06:46:25.063Z,55.08
2019-04-10T06:48:56.329Z,51.15
2019-04-10T06:51:27.261Z,54.83
2019-04-10T06:54:04.612Z,51.53
2019-04-10T06:56:29.243Z,51.88
2019-04-10T06:59:00.362Z,52.60
2019-04-10T07:01:42.303Z,54.42
2019-04-10T07:04:07.621Z,53.45
2019-04-10T07:06:50.353Z,46.30
2019-04-10T07:09:09.719Z,50.12
2019-04-10T07:11:41.111Z,53.68
2019-04-10T07:14:13.979Z,49.33
2019-04-10T07:16:42.611Z,52.08
2019-04-10T07:19:13.171Z,51.33
2019-04-10T07:21:43.508Z,52.33
2019-04-10T07:24:15.082Z,51.10
2019-04-10T07:26:47.714Z,51.10
2019-04-10T07:29:20.275Z,46.80
2019-04-10T07:31:48.763Z,49.13
2019-04-10T07:34:23.906Z,42.75
2019-04-10T07:36:51.885Z,44.50
2019-04-10T07:39:26.872Z,46.77
2019-04-10T07:41:53.617Z,41.68
2019-04-10T07:44:24.262Z,40.63
2019-04-10T07:46:54.912Z,41.55
2019-04-10T07:49:28.522Z,40.25
2019-04-10T07:51:57.025Z,35.70
2019-04-10T07:54:26.806Z,34.40
2019-04-10T07:56:57.851Z,31.12
2019-04-10T07:59:29.227Z,32.63
2019-04-10T08:02:00.065Z,36.70
2019-04-10T08:04:31.100Z,32.75
2019-04-10T08:07:02.996Z,33.45
2019-04-10T08:09:33.458Z,33.53
2019-04-10T08:12:05.035Z,33.78
2019-04-10T08:14:35.769Z,35.48
2019-04-10T08:17:06.171Z,31.82
2019-04-10T08:19:36.955Z,32.73
2019-04-10T08:22:08.286Z,32.20
2019-04-10T08:24:38.559Z,29.77
2019-04-10T08:27:10.225Z,31.62
2019-04-10T08:29:41.143Z,30.85
2019-04-10T08:32:11.920Z,25.15
2019-04-10T08:34:42.105Z,28.50
2019-04-10T08:37:12.375Z,31.25
2019-04-10T08:39:46.422Z,28.55
2019-04-10T08:42:15.189Z,31.23
2019-04-10T08:44:44.950Z,30.23
2019-04-10T08:47:15.230Z,27.62
2019-04-10T08:49:45.889Z,29.95
2019-04-10T08:52:16.584Z,32.60
2019-04-10T08:54:47.131Z,28.85
2019-04-10T08:57:17.171Z,30.52
2019-04-10T08:59:48.329Z,30.20
2019-04-10T09:02:20.032Z,32.33
2019-04-10T09:04:50.628Z,30.50
2019-04-10T09:07:20.589Z,28.50
2019-04-10T09:09:50.345Z,27.73
2019-04-10T09:12:20.156Z,28.98
2019-04-10T09:14:50.122Z,29.98
2019-04-10T09:17:20.960Z,29.23
2019-04-10T09:19:52.146Z,28.50
2019-04-10T09:22:22.541Z,27.75
2019-04-10T09:24:52.946Z,29.15
2019-04-10T09:27:22.725Z,31.57
2019-04-10T09:29:52.538Z,32.30
2019-04-10T09:32:22.392Z,30.15
2019-04-10T09:34:52.179Z,33.00
2019-04-10T09:37:22.078Z,32.28
2019-04-10T09:39:53.546Z,31.75
2019-04-10T09:42:23.932Z,32.33
2019-04-10T09:44:54.665Z,32.88
2019-04-10T09:47:25.290Z,33.65
2019-04-10T09:49:55.574Z,34.38
2019-04-10T09:52:25.971Z,32.65
2019-04-10T09:54:55.870Z,32.98
2019-04-10T09:57:27.190Z,35.30
2019-04-10T09:59:57.153Z,37.00
2019-04-10T10:02:27.437Z,35.90
2019-04-10T10:04:57.789Z,37.90
2019-04-10T10:07:28.440Z,35.75
2019-04-10T10:10:01.260Z,36.33
2019-04-10T10:12:34.265Z,33.85
2019-04-10T10:15:07.132Z,32.67
2019-04-10T10:17:39.071Z,30.92
2019-04-10T10:20:11.326Z,35.98
2019-04-10T10:22:41.301Z,30.97
2019-04-10T10:25:11.646Z,34.30
2019-04-10T10:27:41.388Z,31.15
2019-04-10T10:30:11.650Z,32.23
2019-04-10T10:32:43.807Z,33.58
2019-04-10T10:35:14.958Z,36.05
2019-04-10T10:37:45.004Z,35.05
2019-04-10T10:40:15.709Z,38.53
2019-04-10T10:42:46.173Z,36.75
2019-04-10T10:45:18.498Z,36.90
2019-04-10T10:47:48.634Z,33.53
2019-04-10T10:50:19.635Z,38.28
2019-04-10T10:52:59.679Z,36.38
2019-04-10T10:55:30.299Z,34.98
2019-04-10T10:58:00.208Z,37.53
2019-04-10T11:00:29.938Z,39.63
2019-04-10T11:03:00.262Z,42.43
2019-04-10T11:05:31.967Z,41.08
2019-04-10T11:08:03.068Z,39.67
2019-04-10T11:10:34.383Z,40.35
2019-04-10T11:13:04.303Z,43.35
2019-04-10T11:15:34.683Z,41.55
2019-04-10T11:18:13.845Z,39.85
2019-04-10T11:20:43.966Z,39.42
2019-04-10T11:23:14.034Z,41.25
2019-04-10T11:25:46.459Z,36.93
2019-04-10T11:28:18.561Z,38.50
2019-04-10T11:30:49.170Z,43.50
2019-04-10T11:33:19.806Z,45.48
2019-04-10T11:35:49.534Z,47.60
2019-04-10T11:38:19.443Z,50.55
2019-04-10T11:40:49.800Z,48.78
2019-04-10T11:43:21.580Z,56.25
2019-04-10T11:45:54.172Z,49.00
2019-04-10T11:48:25.300Z,50.67
2019-04-10T11:50:58.931Z,54.03
2019-04-10T11:53:27.310Z,57.93
2019-04-10T11:56:00.123Z,57.17
2019-04-10T11:58:29.595Z,58.40
2019-04-10T12:01:01.576Z,55.63
2019-04-10T12:03:34.951Z,54.30
2019-04-10T12:06:06.243Z,55.90
2019-04-10T12:11:13.859Z,53.10
2019-04-10T12:13:40.809Z,56.25
2019-04-10T12:16:10.595Z,53.78
2019-04-10T12:18:40.577Z,53.95
2019-04-10T12:21:11.021Z,55.90
2019-04-10T12:23:40.942Z,54.35
2019-04-10T12:26:11.690Z,51.68
2019-04-10T12:28:42.301Z,53.68
2019-04-10T12:31:12.771Z,52.80
2019-04-10T12:33:42.564Z,53.92
2019-04-10T12:36:12.393Z,50.95
2019-04-10T12:38:42.226Z,51.83
2019-04-10T12:41:12.258Z,50.88
2019-04-10T12:43:42.992Z,54.80
2019-04-10T12:46:14.662Z,51.48
2019-04-10T12:48:47.304Z,54.50
2019-04-10T12:51:17.451Z,56.05
2019-04-10T12:53:47.742Z,49.83
2019-04-10T12:56:17.849Z,51.33
2019-04-10T12:58:47.777Z,58.08
2019-04-10T13:01:18.429Z,54.45
2019-04-10T13:03:49.479Z,53.08
2019-04-10T13:06:20.063Z,54.90
2019-04-10T13:08:57.867Z,56.63
2019-04-10T13:11:22.910Z,48.58
2019-04-10T13:13:52.795Z,48.13
2019-04-10T13:16:23.756Z,52.35
2019-04-10T13:18:54.443Z,49.38
2019-04-10T13:21:24.788Z,50.10
2019-04-10T13:23:55.268Z,49.55
2019-04-10T13:26:25.998Z,48.30
2019-04-10T13:28:56.728Z,49.58
2019-04-10T13:31:27.643Z,50.17
2019-04-10T13:33:57.448Z,49.98
2019-04-10T13:36:27.278Z,51.40
2019-04-10T13:38:58.212Z,52.10
2019-04-10T13:41:29.722Z,48.28
2019-04-10T13:44:00.295Z,51.37
2019-04-10T13:46:31.021Z,47.38
2019-04-10T13:49:01.946Z,49.15
2019-04-10T13:51:32.585Z,47.33
2019-04-10T13:54:02.641Z,51.92
2019-04-10T13:56:32.924Z,56.13
2019-04-10T13:59:04.766Z,52.75
2019-04-10T14:01:35.992Z,54.45
2019-04-10T14:04:07.037Z,52.70
2019-04-10T14:06:37.915Z,48.48
2019-04-10T14:09:25.989Z,52.95
2019-04-10T14:11:42.165Z,54.50
2019-04-10T14:14:12.688Z,52.40
2019-04-10T14:16:43.158Z,57.05
2019-04-10T14:19:15.055Z,54.08
2019-04-10T14:21:45.082Z,55.52
2019-04-10T14:24:15.713Z,54.75
2019-04-10T14:26:50.487Z,54.35
2019-04-10T14:29:20.536Z,52.98
2019-04-10T14:31:53.170Z,57.35
2019-04-10T14:34:23.986Z,60.12
2019-04-10T14:36:54.807Z,56.30
2019-04-10T14:39:24.612Z,55.75
2019-04-10T14:41:54.386Z,52.93
2019-04-10T14:44:24.355Z,54.80
2019-04-10T14:46:54.946Z,59.05
2019-04-10T14:49:24.987Z,56.63
2019-04-10T14:51:54.818Z,61.30
2019-04-10T14:54:26.041Z,59.35
2019-04-10T14:56:56.803Z,61.80
2019-04-10T14:59:28.215Z,59.80
2019-04-10T15:01:58.570Z,60.90
2019-04-10T15:04:28.903Z,61.53
2019-04-10T15:06:59.279Z,62.58
2019-04-10T15:09:30.718Z,63.83
2019-04-10T15:12:00.904Z,61.60
2019-04-10T15:14:32.841Z,66.20
2019-04-10T15:17:05.897Z,60.55
2019-04-10T15:19:36.339Z,61.77
2019-04-10T15:22:07.445Z,63.58
2019-04-10T15:24:37.872Z,66.07
2019-04-10T15:27:07.703Z,62.45
2019-04-10T15:29:38.537Z,65.62
2019-04-10T15:32:08.968Z,64.35
2019-04-10T15:34:39.644Z,63.42
2019-04-10T15:37:11.283Z,62.80
2019-04-10T15:39:42.937Z,66.37
2019-04-10T15:42:12.628Z,72.47
2019-04-10T15:44:42.771Z,66.90
2019-04-10T15:47:18.375Z,67.40
2019-04-10T15:49:45.275Z,65.40
2019-04-10T15:52:15.144Z,68.10
2019-04-10T15:54:45.831Z,66.72
2019-04-10T15:57:16.399Z,66.62
2019-04-10T15:59:48.222Z,63.30
2019-04-10T16:02:19.573Z,62.25
2019-04-10T16:04:51.059Z,65.47
2019-04-10T16:07:22.542Z,66.67
2019-04-10T16:09:56.246Z,68.67
2019-04-10T16:12:26.931Z,68.40
2019-04-10T16:14:57.076Z,67.67
2019-04-10T16:17:29.388Z,65.45
2019-04-10T16:20:17.557Z,65.25
2019-04-10T16:22:49.525Z,67.25
2019-04-10T16:25:22.023Z,73.50
2019-04-10T16:27:53.300Z,70.80
2019-04-10T16:30:26.271Z,67.75
2019-04-10T16:32:56.842Z,66.35
2019-04-10T16:35:27.370Z,66.62
2019-04-10T16:37:58.147Z,71.72
2019-04-10T16:40:29.944Z,69.65
2019-04-10T16:42:59.928Z,75.45
2019-04-10T16:45:30.701Z,71.70
2019-04-10T16:48:01.123Z,69.65
2019-04-10T16:50:32.332Z,70.03
2019-04-10T16:53:03.326Z,72.35
2019-04-10T16:55:34.593Z,69.60
2019-04-10T16:58:04.449Z,73.85
2019-04-10T17:00:35.360Z,70.87
2019-04-10T17:03:07.455Z,73.25
2019-04-10T17:05:39.776Z,69.50
2019-04-10T17:08:09.832Z,75.37
2019-04-10T17:10:40.776Z,67.92
2019-04-10T17:13:12.231Z,71.12
2019-04-10T17:15:42.626Z,70.40
2019-04-10T17:18:12.543Z,74.97
2019-04-10T17:20:42.526Z,71.30
2019-04-10T17:23:12.792Z,72.55
2019-04-10T17:25:44.423Z,72.55
2019-04-10T17:28:14.387Z,73.95
2019-04-10T17:30:44.405Z,76.92
2019-04-10T17:33:16.466Z,74.67
2019-04-10T17:35:47.457Z,77.47
2019-04-10T17:38:18.448Z,70.25
2019-04-10T17:40:53.231Z,77.45
2019-04-10T17:43:21.076Z,74.82
2019-04-10T17:45:51.469Z,72.92
2019-04-10T17:48:21.982Z,79.92
2019-04-10T17:50:53.168Z,79.62
2019-04-10T17:53:25.100Z,83.03
2019-04-10T17:55:55.948Z,79.12
2019-04-10T17:58:27.459Z,78.67
2019-04-10T18:01:00.022Z,76.37
2019-04-10T18:03:44.852Z,77.35
2019-04-10T18:06:03.431Z,86.08
2019-04-10T18:08:33.253Z,81.45
2019-04-10T18:11:03.816Z,80.05
2019-04-10T18:13:34.186Z,86.15
2019-04-10T18:16:04.585Z,85.57
2019-04-10T18:18:34.385Z,84.37
2019-04-10T18:21:04.988Z,81.42
2019-04-10T18:23:35.618Z,85.62
2019-04-10T18:26:07.385Z,84.75
2019-04-10T18:28:37.998Z,82.08
2019-04-10T18:31:08.434Z,83.87
2019-04-10T18:33:39.916Z,83.67
2019-04-10T18:36:09.731Z,83.30
2019-04-10T18:38:39.642Z,90.97
2019-04-10T18:41:09.595Z,91.67
2019-04-10T18:43:40.346Z,80.38
2019-04-10T18:46:14.742Z,82.53
2019-04-10T18:48:56.851Z,85.80
2019-04-10T18:51:27.331Z,81.87
2019-04-10T18:53:57.564Z,90.83
2019-04-10T18:56:29.137Z,91.10
2019-04-10T18:59:02.697Z,85.07
2019-04-10T19:01:37.026Z,92.02
2019-04-10T19:04:16.251Z,97.47
2019-04-10T19:06:59.243Z,93.90
2019-04-10T19:09:32.368Z,94.07
2019-04-10T19:12:02.978Z,93.35
2019-04-10T19:14:36.445Z,94.85
2019-04-10T19:17:06.734Z,92.80
2019-04-10T19:19:40.317Z,93.85
2019-04-10T19:22:10.857Z,90.72
2019-04-10T19:24:41.667Z,89.52
2019-04-10T19:27:13.242Z,93.52
2019-04-10T19:29:43.417Z,93.58
2019-04-10T19:32:16.251Z,97.22
2019-04-10T19:34:47.678Z,92.80
2019-04-10T19:37:18.585Z,96.05
2019-04-10T19:39:49.164Z,96.53
2019-04-10T19:42:19.468Z,93.95
2019-04-10T19:44:50.998Z,93.03
2019-04-10T19:47:22.045Z,96.92
2019-04-10T19:49:53.011Z,93.17
2019-04-10T19:52:24.415Z,97.90
2019-04-10T19:54:55.972Z,95.32
2019-04-10T19:57:25.852Z,94.13
2019-04-10T19:59:55.870Z,92.08
2019-04-10T20:02:26.687Z,99.72
2019-04-10T20:04:59.066Z,97.62
2019-04-10T20:07:29.673Z,91.72
2019-04-10T20:09:59.470Z,94.58
2019-04-10T20:12:30.789Z,89.95
2019-04-10T20:15:00.695Z,92.27
2019-04-10T20:17:30.609Z,94.90
2019-04-10T20:20:00.474Z,89.40
2019-04-10T20:22:30.815Z,91.87
2019-04-10T20:25:02.021Z,92.02
2019-04-10T20:27:32.368Z,93.50
2019-04-10T20:30:02.166Z,90.55
2019-04-10T20:32:34.275Z,84.15
2019-04-10T20:35:05.977Z,92.27
2019-04-10T20:37:36.592Z,99.92
2019-04-10T20:40:07.107Z,82.97
2019-04-10T20:42:36.940Z,83.78
2019-04-10T20:45:07.346Z,83.10
2019-04-10T20:47:37.866Z,84.37
2019-04-10T20:50:08.021Z,80.10
2019-04-10T20:52:39.744Z,80.07
2019-04-10T20:55:09.699Z,77.62
2019-04-10T20:57:39.564Z,79.50
2019-04-10T21:00:11.707Z,82.22
2019-04-10T21:02:42.831Z,85.55
2019-04-10T21:05:14.960Z,76.15
2019-04-10T21:07:44.148Z,79.05
2019-04-10T21:10:15.020Z,79.10
2019-04-10T21:12:45.437Z,80.77
2019-04-10T21:15:15.718Z,82.75
2019-04-10T21:17:46.507Z,74.67
2019-04-10T21:20:17.968Z,77.58
2019-04-10T21:22:49.348Z,72.92
2019-04-10T21:25:20.809Z,77.90
2019-04-10T21:27:53.305Z,76.10
2019-04-10T21:30:31.728Z,69.95
2019-04-10T21:33:20.486Z,72.50
2019-04-10T21:35:51.739Z,73.33
2019-04-10T21:38:23.581Z,76.40
2019-04-10T21:40:55.032Z,75.60
2019-04-10T21:43:26.208Z,74.62
2019-04-10T21:45:56.012Z,77.27
2019-04-10T21:48:26.512Z,76.80
2019-04-10T21:50:58.105Z,77.65
2019-04-10T21:53:31.652Z,75.12
2019-04-10T21:56:00.246Z,74.58
2019-04-10T21:58:30.442Z,73.00
2019-04-10T22:01:03.529Z,80.65
2019-04-10T22:03:35.767Z,81.45
2019-04-10T22:06:20.272Z,75.05
2019-04-10T22:09:06.669Z,74.85
2019-04-10T22:11:37.836Z,73.28
2019-04-10T22:14:09.094Z,74.45
2019-04-10T22:16:40.661Z,78.28
2019-04-10T22:19:10.624Z,73.70
2019-04-10T22:21:40.405Z,73.15
2019-04-10T22:24:10.238Z,76.17
2019-04-10T22:26:40.331Z,75.62
2019-04-10T22:29:11.164Z,73.02
2019-04-10T22:31:41.893Z,78.12
2019-04-10T22:34:11.801Z,74.55
2019-04-10T22:36:41.768Z,72.78
2019-04-10T22:39:13.272Z,70.22
2019-04-10T22:41:43.167Z,73.83
2019-04-10T22:44:13.869Z,73.28
2019-04-10T22:46:44.644Z,73.33
2019-04-10T22:49:15.115Z,73.02
2019-04-10T22:51:45.992Z,67.27
2019-04-10T22:54:16.365Z,72.65
2019-04-10T22:56:46.255Z,67.50
2019-04-10T22:59:16.295Z,66.15
2019-04-10T23:01:58.077Z,70.15
2019-04-10T23:04:17.819Z,64.07
2019-04-10T23:06:49.211Z,70.85
2019-04-10T23:09:20.205Z,67.00
2019-04-10T23:11:51.888Z,69.47
2019-04-10T23:14:22.740Z,70.57
2019-04-10T23:16:53.049Z,70.62
2019-04-10T23:19:22.892Z,62.15
2019-04-10T23:21:52.741Z,70.67
2019-04-10T23:24:24.668Z,67.87
2019-04-10T23:26:55.479Z,68.07
2019-04-10T23:29:26.329Z,70.08
2019-04-10T23:31:56.758Z,72.55
2019-04-10T23:34:26.544Z,68.28
2019-04-10T23:36:56.588Z,68.52
2019-04-10T23:39:26.365Z,67.78
2019-04-10T23:41:57.011Z,63.02
2019-04-10T23:44:27.374Z,69.10
2019-04-10T23:46:57.841Z,63.60
2019-04-10T23:49:28.277Z,66.17
2019-04-10T23:51:59.091Z,73.35
2019-04-10T23:54:29.536Z,69.17
2019-04-10T23:56:59.275Z,65.85
2019-04-10T23:59:29.287Z,68.22
